sensor_id;sensor_type;location;lat;lon;timestamp;pressure;altitude;pressure_sealevel;temperature;humidity
62791;BME280;48830;53.426;10.300;2023-07-31T00:00:05;100795.28;;;24.34;79.35
62791;BME280;48830;53.426;10.300;2023-07-31T00:02:30;100804.00;;;24.34;79.42
62791;BME280;48830;53.426;10.300;2023-07-31T00:04:56;100797.91;;;24.34;78.97
62791;BME280;48830;53.426;10.300;2023-07-31T00:07:21;100800.50;;;24.35;78.95
62791;BME280;48830;53.426;10.300;2023-07-31T00:09:47;100789.97;;;24.35;79.39
62791;BME280;48830;53.426;10.300;2023-07-31T00:12:12;100781.28;;;24.33;78.94
62791;BME280;48830;53.426;10.300;2023-07-31T00:14:38;100783.88;;;24.35;79.17
62791;BME280;48830;53.426;10.300;2023-07-31T00:17:03;100788.25;;;24.34;79.60
62791;BME280;48830;53.426;10.300;2023-07-31T00:19:29;100793.50;;;24.34;79.49
62791;BME280;48830;53.426;10.300;2023-07-31T00:21:54;100782.13;;;24.34;79.66
62791;BME280;48830;53.426;10.300;2023-07-31T00:24:20;100790.88;;;24.34;79.64
62791;BME280;48830;53.426;10.300;2023-07-31T00:26:45;100775.19;;;24.33;79.50
62791;BME280;48830;53.426;10.300;2023-07-31T00:29:11;100778.66;;;24.33;79.36
62791;BME280;48830;53.426;10.300;2023-07-31T00:31:36;100775.19;;;24.33;79.15
62791;BME280;48830;53.426;10.300;2023-07-31T00:34:01;100768.16;;;24.33;79.67
62791;BME280;48830;53.426;10.300;2023-07-31T00:36:27;100771.72;;;24.32;78.95
62791;BME280;48830;53.426;10.300;2023-07-31T00:38:52;100764.59;;;24.34;78.99
62791;BME280;48830;53.426;10.300;2023-07-31T00:41:18;100770.78;;;24.33;79.19
62791;BME280;48830;53.426;10.300;2023-07-31T00:43:43;100757.59;;;24.35;79.04
62791;BME280;48830;53.426;10.300;2023-07-31T00:46:08;100765.53;;;24.33;79.75
62791;BME280;48830;53.426;10.300;2023-07-31T00:48:35;100761.13;;;24.34;79.02
62791;BME280;48830;53.426;10.300;2023-07-31T00:51:01;100761.19;;;24.32;79.35
62791;BME280;48830;53.426;10.300;2023-07-31T00:53:27;100758.56;;;24.32;79.37
62791;BME280;48830;53.426;10.300;2023-07-31T00:55:53;100755.94;;;24.32;79.46
62791;BME280;48830;53.426;10.300;2023-07-31T00:58:19;100755.94;;;24.32;79.62
62791;BME280;48830;53.426;10.300;2023-07-31T01:00:44;100756.84;;;24.31;79.55
62791;BME280;48830;53.426;10.300;2023-07-31T01:03:11;100743.69;;;24.31;79.63
62791;BME280;48830;53.426;10.300;2023-07-31T01:05:52;100745.47;;;24.31;79.37
62791;BME280;48830;53.426;10.300;2023-07-31T01:13:58;100739.38;;;24.30;79.29
62791;BME280;48830;53.426;10.300;2023-07-31T01:16:25;100729.78;;;24.29;79.63
62791;BME280;48830;53.426;10.300;2023-07-31T01:18:51;100730.56;;;24.31;79.12
62791;BME280;48830;53.426;10.300;2023-07-31T01:27:15;100716.78;;;24.26;79.44
62791;BME280;48830;53.426;10.300;2023-07-31T01:32:17;100726.38;;;24.27;78.83
62791;BME280;48830;53.426;10.300;2023-07-31T01:34:44;100720.31;;;24.25;79.39
62791;BME280;48830;53.426;10.300;2023-07-31T01:37:09;100712.38;;;24.27;79.05
62791;BME280;48830;53.426;10.300;2023-07-31T01:39:35;100716.00;;;24.24;79.36
62791;BME280;48830;53.426;10.300;2023-07-31T01:42:00;100713.38;;;24.24;79.69
62791;BME280;48830;53.426;10.300;2023-07-31T01:44:26;100707.34;;;24.22;78.97
62791;BME280;48830;53.426;10.300;2023-07-31T01:46:52;100702.09;;;24.22;79.52
62791;BME280;48830;53.426;10.300;2023-07-31T01:49:17;100702.09;;;24.22;79.27
62791;BME280;48830;53.426;10.300;2023-07-31T01:51:43;100702.09;;;24.22;79.49
62791;BME280;48830;53.426;10.300;2023-07-31T01:54:08;100699.47;;;24.22;79.51
62791;BME280;48830;53.426;10.300;2023-07-31T01:56:34;100700.34;;;24.21;79.44
62791;BME280;48830;53.426;10.300;2023-07-31T01:58:59;100705.56;;;24.23;79.48
62791;BME280;48830;53.426;10.300;2023-07-31T02:01:24;100692.47;;;24.21;79.42
62791;BME280;48830;53.426;10.300;2023-07-31T02:03:50;100684.66;;;24.20;79.64
62791;BME280;48830;53.426;10.300;2023-07-31T02:06:15;100688.13;;;24.20;79.60
62791;BME280;48830;53.426;10.300;2023-07-31T02:08:42;100680.25;;;24.20;79.49
62791;BME280;48830;53.426;10.300;2023-07-31T02:11:07;100683.75;;;24.21;79.05
62791;BME280;48830;53.426;10.300;2023-07-31T02:13:33;100680.25;;;24.20;79.37
62791;BME280;48830;53.426;10.300;2023-07-31T02:15:58;100678.47;;;24.21;79.45
62791;BME280;48830;53.426;10.300;2023-07-31T02:18:24;100669.75;;;24.20;79.05
62791;BME280;48830;53.426;10.300;2023-07-31T02:20:51;100684.59;;;24.21;79.17
62791;BME280;48830;53.426;10.300;2023-07-31T02:23:17;100682.88;;;24.20;79.06
62791;BME280;48830;53.426;10.300;2023-07-31T02:25:44;100673.22;;;24.21;79.35
62791;BME280;48830;53.426;10.300;2023-07-31T02:28:09;100668.06;;;24.19;79.16
62791;BME280;48830;53.426;10.300;2023-07-31T02:30:35;100662.81;;;24.19;79.76
62791;BME280;48830;53.426;10.300;2023-07-31T02:33:00;100649.66;;;24.19;79.29
62791;BME280;48830;53.426;10.300;2023-07-31T02:35:25;100654.91;;;24.19;79.66
62791;BME280;48830;53.426;10.300;2023-07-31T02:37:51;100650.59;;;24.18;78.96
62791;BME280;48830;53.426;10.300;2023-07-31T02:40:18;100648.75;;;24.20;79.64
62791;BME280;48830;53.426;10.300;2023-07-31T02:42:44;100658.41;;;24.20;79.57
62791;BME280;48830;53.426;10.300;2023-07-31T02:45:10;100661.94;;;24.19;79.17
62791;BME280;48830;53.426;10.300;2023-07-31T02:47:36;100651.44;;;24.19;79.82
62791;BME280;48830;53.426;10.300;2023-07-31T02:50:04;100656.69;;;24.19;79.45
62791;BME280;48830;53.426;10.300;2023-07-31T02:52:30;100650.59;;;24.18;79.00
62791;BME280;48830;53.426;10.300;2023-07-31T02:54:56;100649.75;;;24.18;79.16
62791;BME280;48830;53.426;10.300;2023-07-31T02:57:21;100651.53;;;24.17;79.71
62791;BME280;48830;53.426;10.300;2023-07-31T02:59:47;100655.91;;;24.17;79.71
62791;BME280;48830;53.426;10.300;2023-07-31T03:02:12;100649.81;;;24.16;79.67
62791;BME280;48830;53.426;10.300;2023-07-31T03:04:38;100657.69;;;24.16;79.22
62791;BME280;48830;53.426;10.300;2023-07-31T03:07:04;100648.88;;;24.17;79.70
62791;BME280;48830;53.426;10.300;2023-07-31T03:09:29;100657.69;;;24.16;79.19
62791;BME280;48830;53.426;10.300;2023-07-31T03:11:55;100642.84;;;24.15;79.32
62791;BME280;48830;53.426;10.300;2023-07-31T03:14:20;100641.94;;;24.16;79.32
62791;BME280;48830;53.426;10.300;2023-07-31T03:16:46;100644.50;;;24.18;79.91
62791;BME280;48830;53.426;10.300;2023-07-31T03:19:11;100634.84;;;24.18;79.90
62791;BME280;48830;53.426;10.300;2023-07-31T03:21:36;100632.97;;;24.20;79.43
62791;BME280;48830;53.426;10.300;2023-07-31T03:24:02;100638.31;;;24.19;79.25
62791;BME280;48830;53.426;10.300;2023-07-31T03:26:27;100630.44;;;24.19;79.73
62791;BME280;48830;53.426;10.300;2023-07-31T03:28:55;100618.22;;;24.18;79.15
62791;BME280;48830;53.426;10.300;2023-07-31T03:31:20;100621.78;;;24.17;79.26
62791;BME280;48830;53.426;10.300;2023-07-31T03:33:45;100620.94;;;24.16;79.42
62791;BME280;48830;53.426;10.300;2023-07-31T03:36:11;100609.53;;;24.16;79.62
62791;BME280;48830;53.426;10.300;2023-07-31T03:38:36;100611.28;;;24.17;79.57
62791;BME280;48830;53.426;10.300;2023-07-31T03:41:02;100606.03;;;24.17;79.52
62791;BME280;48830;53.426;10.300;2023-07-31T03:43:27;100605.22;;;24.15;79.93
62791;BME280;48830;53.426;10.300;2023-07-31T03:45:53;100613.09;;;24.15;79.88
62791;BME280;48830;53.426;10.300;2023-07-31T03:48:18;100607.06;;;24.13;79.51
62791;BME280;48830;53.426;10.300;2023-07-31T03:50:44;100607.84;;;24.15;79.43
62791;BME280;48830;53.426;10.300;2023-07-31T03:53:09;100610.53;;;24.13;79.68
62791;BME280;48830;53.426;10.300;2023-07-31T03:55:35;100607.06;;;24.13;79.99
62791;BME280;48830;53.426;10.300;2023-07-31T03:58:00;100610.53;;;24.13;79.42
62791;BME280;48830;53.426;10.300;2023-07-31T04:00:26;100614.09;;;24.12;79.32
62791;BME280;48830;53.426;10.300;2023-07-31T04:02:52;100622.91;;;24.11;79.44
62791;BME280;48830;53.426;10.300;2023-07-31T04:05:17;100622.91;;;24.11;79.92
62791;BME280;48830;53.426;10.300;2023-07-31T04:07:43;100620.31;;;24.09;79.39
62791;BME280;48830;53.426;10.300;2023-07-31T04:10:08;100622.91;;;24.11;79.36
62791;BME280;48830;53.426;10.300;2023-07-31T04:12:34;100621.16;;;24.10;79.75
62791;BME280;48830;53.426;10.300;2023-07-31T04:14:59;100613.28;;;24.10;79.63
62791;BME280;48830;53.426;10.300;2023-07-31T04:17:25;100622.03;;;24.10;79.90
62791;BME280;48830;53.426;10.300;2023-07-31T04:19:50;100617.66;;;24.11;79.99
62791;BME280;48830;53.426;10.300;2023-07-31T04:22:16;100615.03;;;24.11;79.89
62791;BME280;48830;53.426;10.300;2023-07-31T04:24:41;100613.28;;;24.10;79.67
62791;BME280;48830;53.426;10.300;2023-07-31T04:27:06;100615.91;;;24.10;79.75
62791;BME280;48830;53.426;10.300;2023-07-31T04:29:32;100622.09;;;24.09;79.60
62791;BME280;48830;53.426;10.300;2023-07-31T04:31:57;100615.91;;;24.10;79.63
62791;BME280;48830;53.426;10.300;2023-07-31T04:34:23;100620.28;;;24.11;79.19
62791;BME280;48830;53.426;10.300;2023-07-31T04:36:48;100624.59;;;24.12;79.47
62791;BME280;48830;53.426;10.300;2023-07-31T04:39:14;100620.28;;;24.11;79.61
62791;BME280;48830;53.426;10.300;2023-07-31T04:41:39;100615.88;;;24.12;79.08
62791;BME280;48830;53.426;10.300;2023-07-31T04:44:04;100608.84;;;24.12;79.15
62791;BME280;48830;53.426;10.300;2023-07-31T04:46:30;100609.69;;;24.13;79.18
62791;BME280;48830;53.426;10.300;2023-07-31T04:48:56;100608.00;;;24.12;79.65
62791;BME280;48830;53.426;10.300;2023-07-31T04:51:21;100605.38;;;24.12;79.27
62791;BME280;48830;53.426;10.300;2023-07-31T04:53:48;100607.13;;;24.11;79.77
62791;BME280;48830;53.426;10.300;2023-07-31T04:56:13;100601.88;;;24.11;79.80
62791;BME280;48830;53.426;10.300;2023-07-31T04:58:40;100597.50;;;24.12;79.71
62791;BME280;48830;53.426;10.300;2023-07-31T05:01:06;100602.75;;;24.12;79.46
62791;BME280;48830;53.426;10.300;2023-07-31T05:03:31;100587.03;;;24.10;79.33
62791;BME280;48830;53.426;10.300;2023-07-31T05:05:56;100582.69;;;24.09;79.33
62791;BME280;48830;53.426;10.300;2023-07-31T05:08:22;100584.41;;;24.10;79.69
62791;BME280;48830;53.426;10.300;2023-07-31T05:10:47;100584.41;;;24.10;79.61
62791;BME280;48830;53.426;10.300;2023-07-31T05:13:13;100580.94;;;24.09;80.00
62791;BME280;48830;53.426;10.300;2023-07-31T05:15:40;100577.44;;;24.09;79.82
62791;BME280;48830;53.426;10.300;2023-07-31T05:18:06;100570.41;;;24.09;79.29
62791;BME280;48830;53.426;10.300;2023-07-31T05:20:31;100583.63;;;24.08;79.72
62791;BME280;48830;53.426;10.300;2023-07-31T05:22:57;100577.44;;;24.09;79.42
62791;BME280;48830;53.426;10.300;2023-07-31T05:25:22;100573.03;;;24.09;79.95
62791;BME280;48830;53.426;10.300;2023-07-31T05:27:48;100563.38;;;24.10;79.70
62791;BME280;48830;53.426;10.300;2023-07-31T05:30:13;100561.69;;;24.09;79.93
62791;BME280;48830;53.426;10.300;2023-07-31T05:32:38;100566.94;;;24.09;80.04
62791;BME280;48830;53.426;10.300;2023-07-31T05:35:04;100557.38;;;24.08;79.83
62791;BME280;48830;53.426;10.300;2023-07-31T05:37:30;100560.00;;;24.08;79.48
62791;BME280;48830;53.426;10.300;2023-07-31T05:39:55;100553.88;;;24.07;79.28
62791;BME280;48830;53.426;10.300;2023-07-31T05:42:21;100553.03;;;24.07;79.52
62791;BME280;48830;53.426;10.300;2023-07-31T05:44:46;100547.78;;;24.07;79.58
62791;BME280;48830;53.426;10.300;2023-07-31T05:47:12;100546.94;;;24.06;79.63
62791;BME280;48830;53.426;10.300;2023-07-31T05:49:37;100553.88;;;24.07;79.38
62791;BME280;48830;53.426;10.300;2023-07-31T05:52:03;100545.94;;;24.09;79.75
62791;BME280;48830;53.426;10.300;2023-07-31T05:54:29;100553.81;;;24.09;79.49
62791;BME280;48830;53.426;10.300;2023-07-31T05:56:55;100559.91;;;24.09;79.55
62791;BME280;48830;53.426;10.300;2023-07-31T05:59:20;100556.59;;;24.06;79.71
62791;BME280;48830;53.426;10.300;2023-07-31T06:01:46;100567.66;;;24.13;79.95
62791;BME280;48830;53.426;10.300;2023-07-31T06:04:11;100561.56;;;24.12;79.79
62791;BME280;48830;53.426;10.300;2023-07-31T06:06:37;100559.00;;;24.10;79.51
62791;BME280;48830;53.426;10.300;2023-07-31T06:09:02;100556.44;;;24.09;79.33
62791;BME280;48830;53.426;10.300;2023-07-31T06:11:29;100550.41;;;24.07;80.21
62791;BME280;48830;53.426;10.300;2023-07-31T06:13:54;100553.03;;;24.07;79.88
62791;BME280;48830;53.426;10.300;2023-07-31T06:16:20;100547.78;;;24.07;80.26
62791;BME280;48830;53.426;10.300;2023-07-31T06:18:46;100557.38;;;24.08;79.65
62791;BME280;48830;53.426;10.300;2023-07-31T06:21:12;100544.25;;;24.08;79.36
62791;BME280;48830;53.426;10.300;2023-07-31T06:23:38;100544.25;;;24.08;79.72
62791;BME280;48830;53.426;10.300;2023-07-31T06:26:03;100545.16;;;24.07;79.81
62791;BME280;48830;53.426;10.300;2023-07-31T06:28:29;100542.53;;;24.07;79.60
62791;BME280;48830;53.426;10.300;2023-07-31T06:30:56;100537.28;;;24.07;79.53
62791;BME280;48830;53.426;10.300;2023-07-31T06:33:21;100535.50;;;24.07;79.87
62791;BME280;48830;53.426;10.300;2023-07-31T06:35:46;100535.44;;;24.09;79.62
62791;BME280;48830;53.426;10.300;2023-07-31T06:38:12;100535.44;;;24.09;79.39
62791;BME280;48830;53.426;10.300;2023-07-31T06:40:37;100525.84;;;24.08;79.68
62791;BME280;48830;53.426;10.300;2023-07-31T06:43:03;100525.78;;;24.09;79.89
62791;BME280;48830;53.426;10.300;2023-07-31T06:45:34;100521.38;;;24.10;79.87
62791;BME280;48830;53.426;10.300;2023-07-31T06:48:01;100524.94;;;24.09;79.35
62791;BME280;48830;53.426;10.300;2023-07-31T06:50:28;100517.84;;;24.11;79.37
62791;BME280;48830;53.426;10.300;2023-07-31T06:52:53;100519.56;;;24.12;79.44
62791;BME280;48830;53.426;10.300;2023-07-31T06:55:20;100523.88;;;24.13;79.71
62791;BME280;48830;53.426;10.300;2023-07-31T06:57:47;100523.75;;;24.16;79.53
62791;BME280;48830;53.426;10.300;2023-07-31T07:00:14;100521.13;;;24.16;79.10
62791;BME280;48830;53.426;10.300;2023-07-31T07:02:39;100523.75;;;24.16;79.09
62791;BME280;48830;53.426;10.300;2023-07-31T07:05:06;100529.00;;;24.16;79.43
62791;BME280;48830;53.426;10.300;2023-07-31T07:07:32;100526.38;;;24.16;79.12
62791;BME280;48830;53.426;10.300;2023-07-31T07:09:58;100516.72;;;24.17;79.22
62791;BME280;48830;53.426;10.300;2023-07-31T07:12:25;100521.97;;;24.17;79.27
62791;BME280;48830;53.426;10.300;2023-07-31T07:14:50;100519.34;;;24.17;79.20
62791;BME280;48830;53.426;10.300;2023-07-31T07:17:18;100521.97;;;24.17;79.16
62791;BME280;48830;53.426;10.300;2023-07-31T07:19:44;100524.53;;;24.18;79.70
62791;BME280;48830;53.426;10.300;2023-07-31T07:22:11;100529.84;;;24.17;79.37
62791;BME280;48830;53.426;10.300;2023-07-31T07:24:37;100524.66;;;24.15;79.32
62791;BME280;48830;53.426;10.300;2023-07-31T07:27:03;100534.31;;;24.15;79.86
62791;BME280;48830;53.426;10.300;2023-07-31T07:29:28;100536.94;;;24.15;79.38
62791;BME280;48830;53.426;10.300;2023-07-31T07:31:53;100531.75;;;24.13;79.31
62791;BME280;48830;53.426;10.300;2023-07-31T07:34:19;100532.69;;;24.12;80.00
62791;BME280;48830;53.426;10.300;2023-07-31T07:36:44;100523.88;;;24.13;79.52
62791;BME280;48830;53.426;10.300;2023-07-31T07:39:10;100519.41;;;24.15;79.61
62791;BME280;48830;53.426;10.300;2023-07-31T07:41:36;100520.25;;;24.16;79.71
62791;BME280;48830;53.426;10.300;2023-07-31T07:44:01;100521.13;;;24.16;79.35
62791;BME280;48830;53.426;10.300;2023-07-31T07:46:27;100528.06;;;24.17;79.31
62791;BME280;48830;53.426;10.300;2023-07-31T07:48:53;100518.50;;;24.16;79.71
62791;BME280;48830;53.426;10.300;2023-07-31T07:51:18;100512.31;;;24.17;79.83
62791;BME280;48830;53.426;10.300;2023-07-31T07:53:44;100511.47;;;24.17;79.82
62791;BME280;48830;53.426;10.300;2023-07-31T07:56:09;100509.59;;;24.19;79.30
62791;BME280;48830;53.426;10.300;2023-07-31T07:58:35;100513.09;;;24.19;79.75
62791;BME280;48830;53.426;10.300;2023-07-31T08:01:00;100507.91;;;24.18;79.72
62791;BME280;48830;53.426;10.300;2023-07-31T08:03:25;100505.22;;;24.19;79.26
62791;BME280;48830;53.426;10.300;2023-07-31T08:05:51;100505.22;;;24.19;79.47
62791;BME280;48830;53.426;10.300;2023-07-31T08:08:17;100506.91;;;24.20;79.40
62791;BME280;48830;53.426;10.300;2023-07-31T08:10:42;100501.66;;;24.20;79.60
62791;BME280;48830;53.426;10.300;2023-07-31T08:13:10;100499.81;;;24.22;79.69
62791;BME280;48830;53.426;10.300;2023-07-31T08:15:36;100499.03;;;24.20;79.37
62791;BME280;48830;53.426;10.300;2023-07-31T08:18:01;100493.00;;;24.18;79.29
62791;BME280;48830;53.426;10.300;2023-07-31T08:20:26;100491.22;;;24.19;79.84
62791;BME280;48830;53.426;10.300;2023-07-31T08:22:52;100486.81;;;24.19;80.00
62791;BME280;48830;53.426;10.300;2023-07-31T08:25:18;100478.94;;;24.19;79.89
62791;BME280;48830;53.426;10.300;2023-07-31T08:27:44;100483.44;;;24.17;79.89
62791;BME280;48830;53.426;10.300;2023-07-31T08:30:11;100471.22;;;24.16;79.99
62791;BME280;48830;53.426;10.300;2023-07-31T08:32:36;100475.53;;;24.17;79.48
62791;BME280;48830;53.426;10.300;2023-07-31T08:35:02;100476.47;;;24.16;79.88
62791;BME280;48830;53.426;10.300;2023-07-31T08:37:27;100472.00;;;24.18;80.09
62791;BME280;48830;53.426;10.300;2023-07-31T08:39:53;100463.34;;;24.16;79.58
62791;BME280;48830;53.426;10.300;2023-07-31T08:42:20;100457.16;;;24.17;79.66
62791;BME280;48830;53.426;10.300;2023-07-31T08:44:46;100463.34;;;24.16;80.51
62791;BME280;48830;53.426;10.300;2023-07-31T08:47:12;100459.63;;;24.20;79.76
62791;BME280;48830;53.426;10.300;2023-07-31T08:49:38;100468.16;;;24.25;79.82
62791;BME280;48830;53.426;10.300;2023-07-31T08:52:06;100467.22;;;24.26;79.68
62791;BME280;48830;53.426;10.300;2023-07-31T08:54:31;100467.16;;;24.28;80.19
62791;BME280;48830;53.426;10.300;2023-07-31T08:56:58;100460.13;;;24.28;80.64
62791;BME280;48830;53.426;10.300;2023-07-31T08:59:27;100457.50;;;24.28;79.68
62791;BME280;48830;53.426;10.300;2023-07-31T09:01:55;100455.47;;;24.35;79.78
62791;BME280;48830;53.426;10.300;2023-07-31T09:04:22;100455.16;;;24.60;79.62
62791;BME280;48830;53.426;10.300;2023-07-31T09:06:49;100444.78;;;24.93;78.19
62791;BME280;48830;53.426;10.300;2023-07-31T09:09:15;100451.41;;;25.19;76.57
62791;BME280;48830;53.426;10.300;2023-07-31T09:11:41;100448.75;;;25.36;76.09
62791;BME280;48830;53.426;10.300;2023-07-31T09:14:08;100449.97;;;25.47;74.96
62791;BME280;48830;53.426;10.300;2023-07-31T09:16:34;100445.59;;;25.63;74.22
62791;BME280;48830;53.426;10.300;2023-07-31T09:19:00;100443.28;;;25.74;73.34
62791;BME280;48830;53.426;10.300;2023-07-31T09:21:27;100444.78;;;25.96;72.64
62791;BME280;48830;53.426;10.300;2023-07-31T09:23:53;100439.94;;;26.04;72.51
62791;BME280;48830;53.426;10.300;2023-07-31T09:26:48;100433.66;;;26.22;71.36
62791;BME280;48830;53.426;10.300;2023-07-31T09:29:19;100435.50;;;26.36;70.82
62791;BME280;48830;53.426;10.300;2023-07-31T09:31:45;100431.53;;;26.29;71.41
62791;BME280;48830;53.426;10.300;2023-07-31T09:34:11;100425.22;;;26.31;71.05
62791;BME280;48830;53.426;10.300;2023-07-31T09:36:48;100432.31;;;26.47;70.80
62791;BME280;48830;53.426;10.300;2023-07-31T09:39:16;100422.09;;;26.56;70.02
62791;BME280;48830;53.426;10.300;2023-07-31T09:41:47;100419.19;;;26.61;70.06
62791;BME280;48830;53.426;10.300;2023-07-31T09:44:18;100411.25;;;26.77;69.17
62791;BME280;48830;53.426;10.300;2023-07-31T09:46:43;100417.28;;;26.79;69.41
62791;BME280;48830;53.426;10.300;2023-07-31T09:49:13;100407.94;;;26.73;69.15
62791;BME280;48830;53.426;10.300;2023-07-31T09:51:40;100405.72;;;26.81;68.69
62791;BME280;48830;53.426;10.300;2023-07-31T09:54:15;100399.88;;;26.90;68.39
62791;BME280;48830;53.426;10.300;2023-07-31T09:56:45;100402.72;;;26.87;68.36
62791;BME280;48830;53.426;10.300;2023-07-31T09:59:16;100394.19;;;26.98;68.15
62791;BME280;48830;53.426;10.300;2023-07-31T10:01:42;100389.66;;;27.00;68.23
62791;BME280;48830;53.426;10.300;2023-07-31T10:04:09;100384.59;;;27.11;67.60
62791;BME280;48830;53.426;10.300;2023-07-31T10:06:36;100388.63;;;27.03;68.04
62791;BME280;48830;53.426;10.300;2023-07-31T10:09:03;100385.91;;;27.04;67.84
62791;BME280;48830;53.426;10.300;2023-07-31T10:11:35;100382.25;;;27.07;68.23
62791;BME280;48830;53.426;10.300;2023-07-31T10:14:03;100386.06;;;27.31;67.03
62791;BME280;48830;53.426;10.300;2023-07-31T10:16:30;100383.03;;;27.09;67.41
62791;BME280;48830;53.426;10.300;2023-07-31T10:18:56;100381.31;;;27.08;67.15
62791;BME280;48830;53.426;10.300;2023-07-31T10:21:22;100383.78;;;27.25;67.38
62791;BME280;48830;53.426;10.300;2023-07-31T10:23:47;100381.72;;;27.30;66.56
62791;BME280;48830;53.426;10.300;2023-07-31T10:26:17;100386.34;;;27.27;66.24
62791;BME280;48830;53.426;10.300;2023-07-31T10:28:43;100378.31;;;27.28;65.76
62791;BME280;48830;53.426;10.300;2023-07-31T10:31:09;100388.13;;;27.26;65.72
62791;BME280;48830;53.426;10.300;2023-07-31T10:33:35;100373.03;;;27.28;65.92
62791;BME280;48830;53.426;10.300;2023-07-31T10:36:33;100372.59;;;27.06;66.61
62791;BME280;48830;53.426;10.300;2023-07-31T10:38:58;100377.75;;;27.09;66.64
62791;BME280;48830;53.426;10.300;2023-07-31T10:41:30;100373.22;;;27.25;66.01
62791;BME280;48830;53.426;10.300;2023-07-31T10:44:02;100370.13;;;27.33;65.79
62791;BME280;48830;53.426;10.300;2023-07-31T10:46:28;100372.38;;;27.25;66.07
62791;BME280;48830;53.426;10.300;2023-07-31T10:48:58;100371.81;;;27.19;66.01
62791;BME280;48830;53.426;10.300;2023-07-31T10:51:32;100376.69;;;27.11;66.56
62791;BME280;48830;53.426;10.300;2023-07-31T10:54:13;100361.00;;;27.24;66.17
62791;BME280;48830;53.426;10.300;2023-07-31T10:56:40;100363.69;;;27.23;66.06
62791;BME280;48830;53.426;10.300;2023-07-31T10:59:05;100360.78;;;27.27;65.97
62791;BME280;48830;53.426;10.300;2023-07-31T11:01:54;100355.34;;;27.30;65.96
62791;BME280;48830;53.426;10.300;2023-07-31T11:04:26;100353.72;;;27.28;65.50
62791;BME280;48830;53.426;10.300;2023-07-31T11:06:59;100360.00;;;27.11;66.53
62791;BME280;48830;53.426;10.300;2023-07-31T11:09:28;100354.03;;;27.23;66.05
62791;BME280;48830;53.426;10.300;2023-07-31T11:11:55;100354.38;;;27.17;66.36
62791;BME280;48830;53.426;10.300;2023-07-31T11:14:21;100357.41;;;27.25;65.73
62791;BME280;48830;53.426;10.300;2023-07-31T11:16:49;100352.78;;;27.14;66.22
62791;BME280;48830;53.426;10.300;2023-07-31T11:19:21;100347.97;;;27.21;66.27
62791;BME280;48830;53.426;10.300;2023-07-31T11:21:47;100346.44;;;27.17;66.57
62791;BME280;48830;53.426;10.300;2023-07-31T11:24:13;100343.81;;;27.17;66.05
62791;BME280;48830;53.426;10.300;2023-07-31T11:26:38;100343.16;;;27.28;65.77
62791;BME280;48830;53.426;10.300;2023-07-31T11:29:11;100341.56;;;27.25;65.70
62791;BME280;48830;53.426;10.300;2023-07-31T11:31:42;100344.59;;;27.19;66.26
62791;BME280;48830;53.426;10.300;2023-07-31T11:34:08;100342.50;;;27.24;66.33
62791;BME280;48830;53.426;10.300;2023-07-31T11:36:33;100339.38;;;27.17;66.46
62791;BME280;48830;53.426;10.300;2023-07-31T11:39:06;100337.69;;;27.16;66.65
62791;BME280;48830;53.426;10.300;2023-07-31T11:41:32;100336.66;;;27.19;66.56
62791;BME280;48830;53.426;10.300;2023-07-31T11:44:01;100322.69;;;27.17;65.74
62791;BME280;48830;53.426;10.300;2023-07-31T11:46:29;100327.72;;;27.36;65.46
62791;BME280;48830;53.426;10.300;2023-07-31T11:48:59;100322.88;;;27.42;65.51
62791;BME280;48830;53.426;10.300;2023-07-31T11:51:25;100329.41;;;27.37;65.59
62791;BME280;48830;53.426;10.300;2023-07-31T11:53:53;100320.47;;;27.25;65.72
62791;BME280;48830;53.426;10.300;2023-07-31T11:56:20;100325.19;;;27.34;65.51
62791;BME280;48830;53.426;10.300;2023-07-31T11:58:47;100331.94;;;27.38;65.50
62791;BME280;48830;53.426;10.300;2023-07-31T12:01:15;100315.53;;;27.33;65.47
62791;BME280;48830;53.426;10.300;2023-07-31T12:03:43;100315.84;;;27.29;65.82
62791;BME280;48830;53.426;10.300;2023-07-31T12:06:09;100315.53;;;27.33;65.74
62791;BME280;48830;53.426;10.300;2023-07-31T12:08:36;100319.59;;;27.25;65.95
62791;BME280;48830;53.426;10.300;2023-07-31T12:11:03;100304.06;;;27.34;65.75
62791;BME280;48830;53.426;10.300;2023-07-31T12:13:30;100313.28;;;27.27;66.20
62791;BME280;48830;53.426;10.300;2023-07-31T12:15:57;100309.63;;;27.30;66.12
62791;BME280;48830;53.426;10.300;2023-07-31T12:18:26;100305.63;;;27.23;66.02
62791;BME280;48830;53.426;10.300;2023-07-31T12:20:55;100304.22;;;27.31;65.94
62791;BME280;48830;53.426;10.300;2023-07-31T12:23:31;100307.94;;;27.29;65.87
62791;BME280;48830;53.426;10.300;2023-07-31T12:28:29;100301.03;;;27.26;66.15
62791;BME280;48830;53.426;10.300;2023-07-31T12:30:59;100297.38;;;27.29;65.71
62791;BME280;48830;53.426;10.300;2023-07-31T12:33:30;100296.22;;;27.33;65.86
62791;BME280;48830;53.426;10.300;2023-07-31T12:35:56;100295.28;;;27.19;66.11
62791;BME280;48830;53.426;10.300;2023-07-31T12:38:22;100290.31;;;27.29;65.94
62791;BME280;48830;53.426;10.300;2023-07-31T12:40:47;100282.56;;;27.26;66.36
62791;BME280;48830;53.426;10.300;2023-07-31T12:43:13;100288.22;;;27.34;65.99
62791;BME280;48830;53.426;10.300;2023-07-31T12:45:38;100284.06;;;27.30;65.54
62791;BME280;48830;53.426;10.300;2023-07-31T12:48:04;100270.88;;;27.30;65.42
62791;BME280;48830;53.426;10.300;2023-07-31T12:50:29;100268.34;;;27.29;65.82
62791;BME280;48830;53.426;10.300;2023-07-31T12:52:56;100268.97;;;27.32;65.79